createdAt,value
2022-12-20T00:01:11.154Z,9.03
2022-12-20T00:03:37.921Z,9.07
2022-12-20T00:06:05.829Z,9.10
2022-12-20T00:08:34.747Z,9.07
2022-12-20T00:11:02.788Z,9.10
2022-12-20T00:13:29.305Z,9.15
2022-12-20T00:16:06.203Z,9.13
2022-12-20T00:18:32.720Z,9.19
2022-12-20T00:21:00.398Z,9.30
2022-12-20T00:23:27.209Z,9.32
2022-12-20T00:25:53.651Z,9.38
2022-12-20T00:28:20.083Z,9.40
2022-12-20T00:30:46.569Z,9.44
2022-12-20T00:33:13.009Z,9.46
2022-12-20T00:35:43.061Z,9.48
2022-12-20T00:38:09.695Z,9.46
2022-12-20T00:40:36.141Z,9.55
2022-12-20T00:43:02.771Z,9.60
2022-12-20T00:45:30.242Z,9.59
2022-12-20T00:47:56.680Z,9.65
2022-12-20T00:50:23.262Z,9.68
2022-12-20T00:52:49.694Z,9.68
2022-12-20T00:55:16.159Z,9.63
2022-12-20T00:57:43.023Z,9.60
2022-12-20T01:00:10.113Z,9.61
2022-12-20T01:02:36.862Z,9.62
2022-12-20T01:05:03.771Z,9.62
2022-12-20T01:07:30.580Z,9.62
2022-12-20T01:09:57.065Z,9.61
2022-12-20T01:12:23.528Z,9.61
2022-12-20T01:14:50.042Z,9.64
2022-12-20T01:17:16.538Z,9.67
2022-12-20T01:19:43.009Z,9.67
2022-12-20T01:22:09.417Z,9.59
2022-12-20T01:24:36.329Z,9.55
2022-12-20T01:27:02.821Z,9.53
2022-12-20T01:29:29.366Z,9.52
2022-12-20T01:31:55.830Z,9.48
2022-12-20T01:34:22.319Z,9.44
2022-12-20T01:36:49.659Z,9.40
2022-12-20T01:39:16.930Z,9.31
2022-12-20T01:41:45.275Z,9.23
2022-12-20T01:44:17.846Z,9.15
2022-12-20T01:46:46.300Z,9.12
2022-12-20T01:49:24.269Z,9.06
2022-12-20T01:51:52.884Z,9.03
2022-12-20T01:54:28.029Z,8.96
2022-12-20T01:56:59.734Z,8.89
2022-12-20T01:59:27.692Z,8.83
2022-12-20T02:01:58.043Z,8.79
2022-12-20T02:04:25.035Z,8.77
2022-12-20T02:06:51.638Z,8.75
2022-12-20T02:09:18.441Z,8.75
2022-12-20T02:11:58.709Z,8.71
2022-12-20T02:14:56.255Z,8.72
2022-12-20T02:17:56.528Z,8.70
2022-12-20T02:20:45.188Z,8.69
2022-12-20T02:23:37.408Z,8.69
2022-12-20T02:26:19.049Z,8.69
2022-12-20T02:28:59.165Z,8.72
2022-12-20T02:31:30.307Z,8.72
2022-12-20T02:33:58.636Z,8.70
2022-12-20T02:36:25.572Z,8.67
2022-12-20T02:38:52.672Z,8.71
2022-12-20T02:41:30.373Z,8.70
2022-12-20T02:44:24.257Z,8.71
2022-12-20T02:46:51.317Z,8.70
2022-12-20T02:49:22.009Z,8.70
2022-12-20T02:51:52.347Z,8.72
2022-12-20T02:54:20.024Z,8.71
2022-12-20T02:56:56.390Z,8.69
2022-12-20T02:59:30.401Z,8.72
2022-12-20T03:01:57.764Z,8.74
2022-12-20T03:04:34.756Z,8.79
2022-12-20T03:07:05.174Z,8.77
2022-12-20T03:09:34.044Z,8.71
2022-12-20T03:12:01.175Z,8.69
2022-12-20T03:14:28.540Z,8.66
2022-12-20T03:16:57.241Z,8.65
2022-12-20T03:19:23.975Z,8.65
2022-12-20T03:21:51.375Z,8.68
2022-12-20T03:24:18.391Z,8.70
2022-12-20T03:26:45.528Z,8.67
2022-12-20T03:29:12.073Z,8.69
2022-12-20T03:31:38.852Z,8.74
2022-12-20T03:34:06.067Z,8.75
2022-12-20T03:36:34.557Z,8.77
2022-12-20T03:39:03.759Z,8.76
2022-12-20T03:41:33.916Z,8.81
2022-12-20T03:44:00.839Z,8.80
2022-12-20T03:46:28.058Z,8.79
2022-12-20T03:48:55.058Z,8.80
2022-12-20T03:51:22.466Z,8.80
2022-12-20T03:53:49.372Z,8.86
2022-12-20T03:56:16.922Z,8.89
2022-12-20T03:58:44.151Z,8.91
2022-12-20T04:01:24.008Z,8.90
2022-12-20T04:03:51.454Z,8.92
2022-12-20T04:06:18.973Z,8.93
2022-12-20T04:08:45.873Z,8.97
2022-12-20T04:11:17.988Z,9.01
2022-12-20T04:13:52.638Z,9.04
2022-12-20T04:16:28.587Z,9.08
2022-12-20T04:18:55.745Z,9.11
2022-12-20T04:21:31.798Z,9.11
2022-12-20T04:23:59.906Z,9.15
2022-12-20T04:26:35.959Z,9.19
2022-12-20T04:29:03.821Z,9.23
2022-12-20T04:31:31.327Z,9.30
2022-12-20T04:33:58.069Z,9.28
2022-12-20T04:36:25.248Z,9.29
2022-12-20T04:38:53.989Z,9.28
2022-12-20T04:41:23.716Z,9.32
2022-12-20T04:44:01.346Z,9.34
2022-12-20T04:46:35.679Z,9.33
2022-12-20T04:49:03.325Z,9.42
2022-12-20T04:51:32.366Z,9.47
2022-12-20T04:53:58.864Z,9.50
2022-12-20T04:56:39.710Z,9.53
2022-12-20T04:59:12.475Z,9.55
2022-12-20T05:01:41.263Z,9.53
2022-12-20T05:04:08.066Z,9.49
2022-12-20T05:06:36.836Z,9.43
2022-12-20T05:09:04.326Z,9.39
2022-12-20T05:11:32.059Z,9.36
2022-12-20T05:13:58.747Z,9.35
2022-12-20T05:16:25.449Z,9.32
2022-12-20T05:18:52.630Z,9.35
2022-12-20T05:21:37.548Z,9.37
2022-12-20T05:24:24.356Z,9.37
2022-12-20T05:27:09.605Z,9.36
2022-12-20T05:29:36.271Z,9.35
2022-12-20T05:32:04.297Z,9.32
2022-12-20T05:34:32.704Z,9.32
2022-12-20T05:36:59.258Z,9.32
2022-12-20T05:39:29.532Z,9.35
2022-12-20T05:41:59.336Z,9.39
2022-12-20T05:44:27.274Z,9.39
2022-12-20T05:46:56.815Z,9.40
2022-12-20T05:49:28.556Z,9.43
2022-12-20T05:51:56.433Z,9.42
2022-12-20T05:54:25.345Z,9.42
2022-12-20T05:57:14.706Z,9.41
2022-12-20T05:59:42.553Z,9.42
2022-12-20T06:02:15.667Z,9.45
2022-12-20T06:04:43.119Z,9.48
2022-12-20T06:07:16.538Z,9.50
2022-12-20T06:09:46.368Z,9.50
2022-12-20T06:12:15.810Z,9.52
2022-12-20T06:14:42.876Z,9.51
2022-12-20T06:17:12.105Z,9.53
2022-12-20T06:19:41.699Z,9.55
2022-12-20T06:22:10.248Z,9.56
2022-12-20T06:24:48.913Z,9.58
2022-12-20T06:27:18.783Z,9.60
2022-12-20T06:29:54.302Z,9.64
2022-12-20T06:32:23.839Z,9.67
2022-12-20T06:34:51.310Z,9.67
2022-12-20T06:37:17.949Z,9.69
2022-12-20T06:39:44.803Z,9.72
2022-12-20T06:42:11.515Z,9.72
2022-12-20T06:44:39.605Z,9.73
2022-12-20T06:47:06.557Z,9.69
2022-12-20T06:49:33.482Z,9.72
2022-12-20T06:52:02.138Z,9.71
2022-12-20T06:54:39.490Z,9.73
2022-12-20T06:57:06.903Z,9.71
2022-12-20T06:59:33.873Z,9.75
2022-12-20T07:02:00.732Z,9.68
2022-12-20T07:04:27.819Z,9.70
2022-12-20T07:06:54.838Z,9.73
2022-12-20T07:09:21.419Z,9.76
2022-12-20T07:11:48.341Z,9.77
2022-12-20T07:14:14.903Z,9.74
2022-12-20T07:16:44.177Z,9.84
2022-12-20T07:19:14.489Z,9.93
2022-12-20T07:21:41.682Z,9.89
2022-12-20T07:24:08.872Z,9.88
2022-12-20T07:26:35.610Z,9.93
2022-12-20T07:29:02.215Z,10.01
2022-12-20T07:31:29.061Z,10.00
2022-12-20T07:33:55.742Z,10.03
2022-12-20T07:36:22.361Z,10.02
2022-12-20T07:38:49.083Z,10.05
2022-12-20T07:41:18.108Z,10.07
2022-12-20T07:43:45.273Z,10.11
2022-12-20T07:46:14.564Z,10.10
2022-12-20T07:48:41.297Z,10.04
2022-12-20T07:51:12.547Z,9.98
2022-12-20T07:53:45.045Z,9.96
2022-12-20T07:56:14.085Z,9.93
2022-12-20T07:58:41.343Z,9.89
2022-12-20T08:01:09.093Z,9.87
2022-12-20T08:03:41.757Z,9.83
2022-12-20T08:06:08.859Z,9.76
2022-12-20T08:08:40.895Z,9.71
2022-12-20T08:11:09.924Z,9.70
2022-12-20T08:13:40.854Z,9.72
2022-12-20T08:16:11.012Z,9.71
2022-12-20T08:18:37.606Z,9.74
2022-12-20T08:21:04.378Z,9.72
2022-12-20T08:23:31.007Z,9.71
2022-12-20T08:26:03.136Z,9.71
2022-12-20T08:28:29.954Z,9.72
2022-12-20T08:31:08.246Z,9.72
2022-12-20T08:33:36.717Z,9.74
2022-12-20T08:36:07.461Z,9.73
2022-12-20T08:38:34.246Z,9.71
2022-12-20T08:41:10.538Z,9.71
2022-12-20T08:43:37.884Z,9.68
2022-12-20T08:46:05.810Z,9.73
2022-12-20T08:48:32.831Z,9.70
2022-12-20T08:51:02.011Z,9.68
2022-12-20T08:53:30.037Z,9.73
2022-12-20T08:56:14.047Z,9.71
2022-12-20T08:58:42.050Z,9.64
2022-12-20T09:01:11.857Z,9.59
2022-12-20T09:03:40.428Z,9.54
2022-12-20T09:06:10.570Z,9.53
2022-12-20T09:08:38.935Z,9.51
2022-12-20T09:11:13.493Z,9.47
2022-12-20T09:13:45.958Z,9.48
2022-12-20T09:16:19.379Z,9.45
2022-12-20T09:18:50.863Z,9.40
2022-12-20T09:21:18.904Z,9.39
2022-12-20T09:23:45.800Z,9.40
2022-12-20T09:26:15.205Z,9.40
2022-12-20T09:28:43.213Z,9.40
2022-12-20T09:31:15.777Z,9.40
2022-12-20T09:33:42.976Z,9.41
2022-12-20T09:36:19.125Z,9.37
2022-12-20T09:38:46.893Z,9.37
2022-12-20T09:41:44.030Z,9.35
2022-12-20T09:44:22.427Z,9.37
2022-12-20T09:46:55.118Z,9.36
2022-12-20T09:49:27.626Z,9.38
2022-12-20T09:52:27.605Z,9.37
2022-12-20T09:55:15.628Z,9.36
2022-12-20T09:58:15.157Z,9.38
2022-12-20T10:00:53.461Z,9.36
2022-12-20T10:03:31.735Z,9.35
2022-12-20T10:06:39.654Z,9.36
2022-12-20T10:09:19.557Z,9.38
2022-12-20T10:11:51.513Z,9.39
2022-12-20T10:14:24.187Z,9.39
2022-12-20T10:16:58.343Z,9.40
2022-12-20T10:19:37.384Z,9.40
2022-12-20T10:22:39.562Z,9.43
2022-12-20T10:25:18.227Z,9.46
2022-12-20T10:27:47.572Z,9.47
2022-12-20T10:30:17.205Z,9.48
2022-12-20T10:32:49.450Z,9.50
2022-12-20T10:35:29.633Z,9.50
2022-12-20T10:38:08.807Z,9.53
2022-12-20T10:43:30.258Z,9.57
2022-12-20T10:46:06.646Z,9.57
2022-12-20T10:48:36.026Z,9.56
2022-12-20T10:51:16.554Z,9.58
2022-12-20T10:53:52.562Z,9.58
2022-12-20T10:56:32.583Z,9.57
2022-12-20T10:59:02.327Z,9.57
2022-12-20T11:01:32.235Z,9.58
2022-12-20T11:04:02.001Z,9.60
2022-12-20T11:06:49.049Z,9.62
2022-12-20T11:09:32.640Z,9.62
2022-12-20T11:12:12.100Z,9.63
2022-12-20T11:14:43.998Z,9.61
2022-12-20T11:17:19.960Z,9.63
2022-12-20T11:20:05.096Z,9.65
2022-12-20T11:22:56.369Z,9.65
2022-12-20T11:25:49.528Z,9.64
2022-12-20T11:28:48.821Z,9.65
2022-12-20T11:31:36.582Z,9.68
2022-12-20T11:34:13.745Z,9.70
2022-12-20T11:36:45.936Z,9.70
2022-12-20T11:39:17.643Z,9.71
2022-12-20T11:42:09.167Z,9.67
2022-12-20T11:45:09.830Z,9.70
2022-12-20T11:47:55.957Z,9.70
2022-12-20T11:50:32.121Z,9.69
2022-12-20T11:53:04.464Z,9.70
2022-12-20T11:55:38.403Z,9.72
2022-12-20T11:58:18.492Z,9.71
2022-12-20T12:01:00.149Z,9.72
2022-12-20T12:03:36.194Z,9.72
2022-12-20T12:06:08.447Z,9.72
2022-12-20T12:08:53.454Z,9.72
2022-12-20T12:12:04.577Z,9.73
2022-12-20T12:14:39.632Z,9.75
2022-12-20T12:17:14.327Z,9.78
2022-12-20T12:19:46.626Z,9.79
2022-12-20T12:22:20.070Z,9.77
2022-12-20T12:24:52.871Z,9.79
2022-12-20T12:27:27.742Z,9.82
2022-12-20T12:29:56.333Z,9.88
2022-12-20T12:32:45.298Z,9.92
2022-12-20T12:35:36.331Z,9.91
2022-12-20T12:38:16.223Z,9.88
2022-12-20T12:40:54.667Z,9.87
2022-12-20T12:43:37.116Z,9.85
2022-12-20T12:46:16.429Z,9.85
2022-12-20T12:48:54.093Z,9.88
2022-12-20T12:51:34.856Z,9.89
2022-12-20T12:54:04.468Z,9.88
2022-12-20T12:56:46.122Z,9.86
2022-12-20T12:59:13.055Z,9.87
2022-12-20T13:01:54.775Z,9.86
2022-12-20T13:04:21.387Z,9.87
2022-12-20T13:06:48.030Z,9.86
2022-12-20T13:09:22.361Z,9.87
2022-12-20T13:11:57.437Z,9.87
2022-12-20T13:14:29.819Z,9.89
2022-12-20T13:17:15.241Z,9.88
2022-12-20T13:19:52.494Z,9.87
2022-12-20T13:22:25.554Z,9.88
2022-12-20T13:24:58.571Z,9.88
2022-12-20T13:27:27.875Z,9.88
2022-12-20T13:29:59.217Z,9.89
2022-12-20T13:32:47.703Z,9.91
2022-12-20T13:35:26.719Z,9.88
2022-12-20T13:37:55.142Z,9.88
2022-12-20T13:40:41.010Z,9.88
2022-12-20T13:43:25.139Z,9.88
2022-12-20T13:45:55.783Z,9.86
2022-12-20T13:48:30.198Z,9.87
2022-12-20T13:50:58.172Z,9.88
2022-12-20T13:53:29.838Z,9.89
2022-12-20T13:55:56.490Z,9.89
2022-12-20T13:58:31.143Z,9.89
2022-12-20T14:01:07.233Z,9.88
2022-12-20T14:03:40.536Z,9.87
2022-12-20T14:06:11.119Z,9.87
2022-12-20T14:08:43.883Z,9.89
2022-12-20T14:11:18.464Z,9.88
2022-12-20T14:14:04.716Z,9.87
2022-12-20T14:16:33.004Z,9.87
2022-12-20T14:19:12.967Z,9.89
2022-12-20T14:21:45.484Z,9.88
2022-12-20T14:24:17.945Z,9.87
2022-12-20T14:26:51.969Z,9.87
2022-12-20T14:29:20.728Z,9.87
2022-12-20T14:31:48.969Z,9.86
2022-12-20T14:34:29.288Z,9.85
2022-12-20T14:37:24.127Z,9.85
2022-12-20T14:40:00.911Z,9.85
2022-12-20T14:42:33.611Z,9.83
2022-12-20T14:45:09.273Z,9.82
2022-12-20T14:47:38.037Z,9.81
2022-12-20T14:50:17.392Z,9.82
2022-12-20T14:52:45.740Z,9.81
2022-12-20T14:55:19.428Z,9.79
2022-12-20T14:57:51.460Z,9.79
2022-12-20T15:00:18.166Z,9.78
2022-12-20T15:02:52.910Z,9.76
2022-12-20T15:05:40.634Z,9.76
2022-12-20T15:08:14.408Z,9.75
2022-12-20T15:10:47.198Z,9.73
2022-12-20T15:13:18.459Z,9.72
2022-12-20T15:15:45.882Z,9.72
2022-12-20T15:18:14.903Z,9.70
2022-12-20T15:20:42.339Z,9.70
2022-12-20T15:23:15.543Z,9.68
2022-12-20T15:25:43.637Z,9.67
2022-12-20T15:28:24.250Z,9.67
2022-12-20T15:30:53.239Z,9.65
2022-12-20T15:33:24.559Z,9.67
2022-12-20T15:35:52.001Z,9.63
2022-12-20T15:38:40.876Z,9.64
2022-12-20T15:41:20.066Z,9.64
2022-12-20T15:43:47.462Z,9.62
2022-12-20T15:46:14.349Z,9.63
2022-12-20T15:48:41.055Z,9.63
2022-12-20T15:51:17.750Z,9.62
2022-12-20T15:53:44.692Z,9.61
2022-12-20T15:56:21.657Z,9.62
2022-12-20T15:58:49.716Z,9.60
2022-12-20T16:01:20.557Z,9.59
2022-12-20T16:03:47.352Z,9.60
2022-12-20T16:06:14.352Z,9.59
2022-12-20T16:08:41.659Z,9.58
2022-12-20T16:11:20.875Z,9.58
2022-12-20T16:13:47.852Z,9.57
2022-12-20T16:16:19.685Z,9.56
2022-12-20T16:18:46.486Z,9.56
2022-12-20T16:21:22.318Z,9.55
2022-12-20T16:23:50.826Z,9.55
2022-12-20T16:26:20.079Z,9.54
2022-12-20T16:28:48.206Z,9.54
2022-12-20T16:31:29.114Z,9.53
2022-12-20T16:33:56.008Z,9.53
2022-12-20T16:36:23.495Z,9.52
2022-12-20T16:38:51.174Z,9.53
2022-12-20T16:41:29.814Z,9.52
2022-12-20T16:43:58.867Z,9.50
2022-12-20T16:46:27.255Z,9.52
2022-12-20T16:48:55.275Z,9.50
2022-12-20T16:51:32.510Z,9.50
2022-12-20T16:54:21.698Z,9.49
2022-12-20T16:56:55.394Z,9.49
2022-12-20T16:59:26.060Z,9.48
2022-12-20T17:01:55.950Z,9.48
2022-12-20T17:04:24.078Z,9.47
2022-12-20T17:06:50.800Z,9.46
2022-12-20T17:12:04.319Z,9.47
2022-12-20T17:14:31.205Z,9.45
2022-12-20T17:16:57.814Z,9.46
2022-12-20T17:19:24.696Z,9.45
2022-12-20T17:24:36.046Z,9.43
2022-12-20T17:27:02.765Z,9.44
2022-12-20T17:29:29.444Z,9.43
2022-12-20T17:31:56.233Z,9.43
2022-12-20T17:34:24.255Z,9.42
2022-12-20T17:36:54.417Z,9.42
2022-12-20T17:39:22.341Z,9.42
2022-12-20T17:41:52.068Z,9.41
2022-12-20T17:44:21.590Z,9.42
2022-12-20T17:46:48.623Z,9.40
2022-12-20T17:49:16.225Z,9.41
2022-12-20T17:51:43.358Z,9.41
2022-12-20T17:54:36.835Z,9.41
2022-12-20T17:57:12.408Z,9.40
2022-12-20T17:59:38.870Z,9.40
2022-12-20T18:02:19.269Z,9.39
2022-12-20T18:04:47.128Z,9.40
2022-12-20T18:07:13.693Z,9.39
2022-12-20T18:09:40.195Z,9.39
2022-12-20T18:12:06.900Z,9.39
2022-12-20T18:14:33.564Z,9.37
2022-12-20T18:17:00.131Z,9.37
2022-12-20T18:19:26.894Z,9.38
2022-12-20T18:21:53.361Z,9.38
2022-12-20T18:24:21.440Z,9.37
2022-12-20T18:26:47.971Z,9.37
2022-12-20T18:29:14.612Z,9.36
2022-12-20T18:31:41.458Z,9.36
2022-12-20T18:34:09.332Z,9.36
2022-12-20T18:36:37.226Z,9.35
2022-12-20T18:39:05.875Z,9.34
2022-12-20T18:41:33.233Z,9.33
2022-12-20T18:44:05.760Z,9.33
2022-12-20T18:46:33.361Z,9.32
2022-12-20T18:49:01.560Z,9.31
2022-12-20T18:51:31.325Z,9.31
2022-12-20T18:53:59.656Z,9.31
2022-12-20T18:56:29.529Z,9.31
2022-12-20T18:58:56.714Z,9.29
2022-12-20T19:01:26.429Z,9.31
2022-12-20T19:03:53.794Z,9.30
2022-12-20T19:06:21.359Z,9.29
2022-12-20T19:08:48.760Z,9.28
2022-12-20T19:11:18.006Z,9.29
2022-12-20T19:13:44.917Z,9.29
2022-12-20T19:16:17.158Z,9.26
2022-12-20T19:18:44.697Z,9.27
2022-12-20T19:21:17.625Z,9.27
2022-12-20T19:23:46.993Z,9.27
2022-12-20T19:26:14.228Z,9.27
2022-12-20T19:28:42.347Z,9.28
2022-12-20T19:31:14.264Z,9.26
2022-12-20T19:33:47.555Z,9.25
2022-12-20T19:36:20.547Z,9.26
2022-12-20T19:38:52.219Z,9.22
2022-12-20T19:41:20.143Z,9.24
2022-12-20T19:43:47.716Z,9.22
2022-12-20T19:46:15.409Z,9.22
2022-12-20T19:48:42.304Z,9.23
2022-12-20T19:51:14.016Z,9.22
2022-12-20T19:53:43.205Z,9.23
2022-12-20T19:56:13.837Z,9.22
2022-12-20T19:58:40.837Z,9.20
2022-12-20T20:01:09.066Z,9.22
2022-12-20T20:03:36.757Z,9.21
2022-12-20T20:06:04.873Z,9.22
2022-12-20T20:08:32.735Z,9.22
2022-12-20T20:11:07.199Z,9.22
2022-12-20T20:13:36.027Z,9.21
2022-12-20T20:16:03.849Z,9.21
2022-12-20T20:18:33.967Z,9.21
2022-12-20T20:21:06.163Z,9.20
2022-12-20T20:23:32.804Z,9.19
2022-12-20T20:26:00.081Z,9.21
2022-12-20T20:28:32.258Z,9.20
2022-12-20T20:30:59.624Z,9.21
2022-12-20T20:33:26.708Z,9.20
2022-12-20T20:35:55.309Z,9.17
2022-12-20T20:38:22.498Z,9.15
2022-12-20T20:40:49.513Z,9.15
2022-12-20T20:43:16.527Z,9.16
2022-12-20T20:45:43.111Z,9.16
2022-12-20T20:48:09.744Z,9.15
2022-12-20T20:51:01.389Z,9.14
2022-12-20T20:53:33.093Z,9.14
2022-12-20T20:56:00.989Z,9.14
2022-12-20T20:58:28.530Z,9.12
2022-12-20T21:01:02.294Z,9.11
2022-12-20T21:03:30.224Z,9.11
2022-12-20T21:06:36.555Z,9.13
2022-12-20T21:08:44.008Z,9.11
2022-12-20T21:11:10.790Z,9.11
2022-12-20T21:13:37.399Z,9.11
2022-12-20T21:16:30.158Z,9.10
2022-12-20T21:18:58.478Z,9.09
2022-12-20T21:21:26.564Z,9.11
2022-12-20T21:23:54.099Z,9.08
2022-12-20T21:26:22.085Z,9.10
2022-12-20T21:28:48.611Z,9.09
2022-12-20T21:31:18.558Z,9.06
2022-12-20T21:33:50.311Z,9.07
2022-12-20T21:36:19.922Z,9.06
2022-12-20T21:38:50.387Z,9.02
2022-12-20T21:41:18.885Z,9.01
2022-12-20T21:43:46.119Z,9.00
2022-12-20T21:46:12.761Z,8.98
2022-12-20T21:48:40.260Z,8.94
2022-12-20T21:51:14.894Z,8.91
2022-12-20T21:53:47.188Z,8.91
2022-12-20T21:56:15.614Z,8.89
2022-12-20T21:58:42.859Z,8.87
2022-12-20T22:01:09.809Z,8.85
2022-12-20T22:03:37.789Z,8.84
2022-12-20T22:06:04.871Z,8.82
2022-12-20T22:08:32.209Z,8.80
2022-12-20T22:11:07.251Z,8.78
2022-12-20T22:13:40.827Z,8.75
2022-12-20T22:16:08.100Z,8.72
2022-12-20T22:18:35.232Z,8.72
2022-12-20T22:21:06.150Z,8.72
2022-12-20T22:23:32.763Z,8.73
2022-12-20T22:26:03.362Z,8.69
2022-12-20T22:28:30.133Z,8.66
2022-12-20T22:30:56.723Z,8.65
2022-12-20T22:33:23.422Z,8.65
2022-12-20T22:35:49.890Z,8.61
2022-12-20T22:38:16.504Z,8.61
2022-12-20T22:40:43.121Z,8.60
2022-12-20T22:43:09.598Z,8.58
2022-12-20T22:45:36.073Z,8.59
2022-12-20T22:48:02.850Z,8.56
2022-12-20T22:50:29.261Z,8.55
2022-12-20T22:52:55.702Z,8.55
2022-12-20T22:55:22.115Z,8.54
2022-12-20T22:57:48.609Z,8.53
2022-12-20T23:00:15.512Z,8.49
2022-12-20T23:02:42.450Z,8.50
2022-12-20T23:05:09.407Z,8.50
2022-12-20T23:07:36.060Z,8.50
2022-12-20T23:10:02.596Z,8.47
2022-12-20T23:12:47.471Z,8.47
2022-12-20T23:15:32.104Z,8.44
2022-12-20T23:17:58.590Z,8.42
2022-12-20T23:20:43.581Z,8.41
2022-12-20T23:23:10.071Z,8.39
2022-12-20T23:25:36.533Z,8.36
2022-12-20T23:28:02.984Z,8.37
2022-12-20T23:30:29.412Z,8.35
2022-12-20T23:32:56.240Z,8.34
2022-12-20T23:35:24.631Z,8.37
2022-12-20T23:37:51.152Z,8.36
2022-12-20T23:40:18.060Z,8.35
2022-12-20T23:42:44.979Z,8.29
2022-12-20T23:45:11.839Z,8.27
2022-12-20T23:47:38.362Z,8.26
2022-12-20T23:50:05.416Z,8.26
2022-12-20T23:52:32.234Z,8.25
2022-12-20T23:54:58.642Z,8.23
2022-12-20T23:57:25.081Z,8.22
2022-12-20T23:59:51.510Z,8.22
